createdAt,value
2023-01-08T00:00:00.459Z,72.17
2023-01-08T00:02:26.881Z,72.68
2023-01-08T00:04:53.279Z,73.21
2023-01-08T00:07:19.894Z,72.06
2023-01-08T00:09:47.777Z,72.46
2023-01-08T00:12:14.254Z,71.99
2023-01-08T00:14:40.899Z,73.24
2023-01-08T00:17:08.510Z,72.50
2023-01-08T00:19:34.913Z,74.43
2023-01-08T00:22:01.363Z,75.91
2023-01-08T00:24:27.794Z,77.33
2023-01-08T00:26:54.237Z,78.22
2023-01-08T00:29:20.620Z,77.08
2023-01-08T00:31:47.032Z,76.42
2023-01-08T00:34:13.529Z,75.13
2023-01-08T00:36:39.908Z,74.25
2023-01-08T00:39:06.346Z,74.11
2023-01-08T00:41:33.383Z,73.41
2023-01-08T00:43:59.996Z,73.29
2023-01-08T00:46:26.399Z,73.38
2023-01-08T00:48:52.862Z,73.34
2023-01-08T00:51:19.234Z,72.64
2023-01-08T00:53:45.797Z,75.09
2023-01-08T00:56:12.243Z,75.37
2023-01-08T00:58:39.126Z,75.49
2023-01-08T01:01:14.206Z,74.55
2023-01-08T01:03:40.982Z,73.21
2023-01-08T01:06:08.776Z,71.85
2023-01-08T01:08:35.374Z,71.30
2023-01-08T01:11:07.132Z,71.54
2023-01-08T01:13:33.728Z,71.71
2023-01-08T01:16:01.375Z,72.79
2023-01-08T01:18:28.573Z,72.17
2023-01-08T01:20:55.092Z,72.17
2023-01-08T01:23:21.622Z,72.34
2023-01-08T01:25:48.067Z,73.41
2023-01-08T01:28:14.488Z,74.75
2023-01-08T01:30:40.903Z,74.84
2023-01-08T01:33:07.427Z,74.60
2023-01-08T01:35:33.991Z,74.27
2023-01-08T01:38:00.525Z,73.42
2023-01-08T01:40:26.950Z,72.71
2023-01-08T01:42:53.320Z,72.45
2023-01-08T01:45:23.417Z,72.48
2023-01-08T01:47:55.547Z,72.82
2023-01-08T01:50:25.666Z,72.94
2023-01-08T01:53:00.615Z,72.64
2023-01-08T01:55:27.723Z,72.88
2023-01-08T01:58:03.540Z,72.96
2023-01-08T02:00:31.184Z,72.66
2023-01-08T02:02:57.745Z,72.67
2023-01-08T02:05:34.739Z,72.43
2023-01-08T02:08:11.066Z,72.69
2023-01-08T02:10:49.377Z,72.73
2023-01-08T02:13:26.824Z,71.91
2023-01-08T02:16:23.747Z,72.31
2023-01-08T02:18:57.335Z,71.38
2023-01-08T02:21:41.167Z,71.94
2023-01-08T02:24:51.578Z,71.24
2023-01-08T02:27:20.281Z,71.92
2023-01-08T02:29:47.975Z,71.59
2023-01-08T02:32:14.686Z,72.20
2023-01-08T02:34:41.103Z,72.37
2023-01-08T02:37:09.344Z,72.31
2023-01-08T02:39:55.987Z,72.82
2023-01-08T02:42:31.388Z,72.51
2023-01-08T02:45:19.354Z,73.24
2023-01-08T02:47:50.996Z,73.15
2023-01-08T02:50:37.614Z,72.88
2023-01-08T02:53:16.253Z,72.96
2023-01-08T02:55:47.508Z,72.54
2023-01-08T02:58:14.388Z,72.68
2023-01-08T03:00:44.390Z,72.92
2023-01-08T03:03:16.452Z,74.10
2023-01-08T03:05:48.408Z,73.87
2023-01-08T03:08:14.973Z,73.79
2023-01-08T03:10:44.816Z,74.45
2023-01-08T03:13:17.463Z,74.48
2023-01-08T03:15:49.930Z,74.51
2023-01-08T03:18:23.916Z,75.15
2023-01-08T03:20:51.319Z,75.47
2023-01-08T03:23:20.800Z,74.49
2023-01-08T03:25:48.358Z,74.55
2023-01-08T03:28:24.247Z,74.85
2023-01-08T03:30:53.464Z,74.73
2023-01-08T03:33:21.958Z,73.94
2023-01-08T03:35:51.354Z,74.35
2023-01-08T03:38:25.392Z,74.17
2023-01-08T03:40:57.057Z,74.41
2023-01-08T03:43:23.703Z,74.06
2023-01-08T03:45:56.041Z,73.68
2023-01-08T03:48:25.393Z,72.65
2023-01-08T03:50:51.948Z,72.70
2023-01-08T03:53:18.545Z,72.20
2023-01-08T03:55:44.974Z,72.03
2023-01-08T03:58:11.341Z,72.74
2023-01-08T04:00:37.941Z,72.99
2023-01-08T04:03:05.923Z,72.79
2023-01-08T04:05:33.153Z,72.90
2023-01-08T04:07:59.820Z,72.65
2023-01-08T04:10:26.779Z,71.96
2023-01-08T04:12:53.525Z,72.14
2023-01-08T04:15:20.399Z,72.12
2023-01-08T04:17:46.781Z,72.74
2023-01-08T04:20:13.206Z,73.10
2023-01-08T04:22:39.724Z,73.17
2023-01-08T04:25:06.412Z,72.63
2023-01-08T04:27:32.921Z,72.77
2023-01-08T04:29:59.288Z,71.86
2023-01-08T04:32:25.778Z,72.18
2023-01-08T04:34:52.364Z,71.04
2023-01-08T04:37:18.791Z,70.23
2023-01-08T04:39:45.159Z,70.25
2023-01-08T04:42:11.555Z,69.78
2023-01-08T04:44:37.934Z,69.15
2023-01-08T04:47:04.447Z,69.74
2023-01-08T04:49:30.848Z,70.85
2023-01-08T04:51:57.396Z,70.37
2023-01-08T04:54:23.769Z,71.18
2023-01-08T04:56:51.740Z,70.50
2023-01-08T04:59:18.453Z,71.74
2023-01-08T05:01:45.003Z,72.45
2023-01-08T05:04:11.759Z,72.49
2023-01-08T05:06:38.316Z,71.54
2023-01-08T05:09:04.700Z,71.06
2023-01-08T05:11:31.182Z,71.84
2023-01-08T05:13:58.077Z,72.60
2023-01-08T05:16:24.530Z,73.72
2023-01-08T05:18:51.166Z,76.62
2023-01-08T05:21:17.717Z,76.47
2023-01-08T05:23:46.930Z,74.17
2023-01-08T05:26:17.012Z,72.45
2023-01-08T05:28:43.770Z,72.59
2023-01-08T05:31:11.695Z,70.40
2023-01-08T05:33:38.654Z,71.74
2023-01-08T05:36:09.688Z,72.45
2023-01-08T05:38:36.542Z,74.71
2023-01-08T05:41:03.433Z,74.73
2023-01-08T05:43:31.050Z,75.41
2023-01-08T05:46:02.101Z,76.45
2023-01-08T05:48:30.151Z,75.85
2023-01-08T05:50:56.802Z,75.15
2023-01-08T05:53:23.353Z,74.49
2023-01-08T05:55:49.780Z,74.78
2023-01-08T05:58:19.185Z,74.47
2023-01-08T06:00:45.937Z,74.43
2023-01-08T06:03:12.514Z,74.18
2023-01-08T06:05:39.271Z,73.68
2023-01-08T06:08:08.278Z,73.51
2023-01-08T06:10:34.931Z,73.86
2023-01-08T06:13:01.397Z,73.58
2023-01-08T06:15:27.834Z,73.78
2023-01-08T06:17:54.274Z,74.83
2023-01-08T06:20:20.878Z,75.67
2023-01-08T06:22:47.233Z,72.30
2023-01-08T06:25:13.706Z,72.16
2023-01-08T06:27:40.779Z,72.09
2023-01-08T06:30:09.508Z,73.44
2023-01-08T06:32:35.962Z,75.00
2023-01-08T06:35:02.419Z,76.25
2023-01-08T06:37:28.804Z,75.84
2023-01-08T06:39:55.210Z,75.64
2023-01-08T06:42:21.659Z,75.55
2023-01-08T06:44:48.212Z,75.05
2023-01-08T06:47:14.636Z,75.19
2023-01-08T06:49:41.014Z,75.37
2023-01-08T06:52:07.475Z,74.92
2023-01-08T06:54:34.242Z,74.94
2023-01-08T06:57:00.810Z,75.11
2023-01-08T06:59:27.410Z,74.25
2023-01-08T07:01:53.964Z,73.99
2023-01-08T07:04:20.526Z,74.51
2023-01-08T07:06:47.396Z,74.50
2023-01-08T07:09:14.850Z,74.43
2023-01-08T07:11:41.996Z,75.73
2023-01-08T07:14:08.506Z,75.54
2023-01-08T07:16:35.421Z,75.77
2023-01-08T07:19:01.830Z,74.60
2023-01-08T07:21:28.211Z,75.06
2023-01-08T07:23:54.634Z,75.15
2023-01-08T07:26:21.164Z,74.53
2023-01-08T07:28:47.519Z,74.82
2023-01-08T07:31:14.050Z,74.18
2023-01-08T07:33:40.527Z,73.66
2023-01-08T07:36:07.402Z,73.91
2023-01-08T07:38:33.865Z,74.79
2023-01-08T07:41:00.261Z,75.46
2023-01-08T07:43:26.638Z,75.34
2023-01-08T07:45:53.035Z,75.85
2023-01-08T07:48:19.412Z,76.29
2023-01-08T07:50:45.841Z,75.83
2023-01-08T07:53:13.844Z,75.61
2023-01-08T07:55:40.263Z,75.37
2023-01-08T07:58:14.546Z,74.63
2023-01-08T08:00:41.719Z,75.24
2023-01-08T08:03:11.572Z,76.95
2023-01-08T08:05:38.718Z,76.69
2023-01-08T08:08:12.419Z,75.32
2023-01-08T08:10:39.801Z,75.55
2023-01-08T08:13:06.981Z,75.44
2023-01-08T08:15:34.402Z,76.51
2023-01-08T08:18:00.907Z,75.73
2023-01-08T08:20:27.742Z,76.89
2023-01-08T08:23:07.713Z,76.69
2023-01-08T08:25:34.933Z,75.79
2023-01-08T08:28:02.443Z,74.75
2023-01-08T08:30:31.252Z,74.54
2023-01-08T08:33:01.204Z,75.60
2023-01-08T08:35:28.574Z,74.38
2023-01-08T08:37:55.969Z,75.07
2023-01-08T08:40:23.038Z,74.65
2023-01-08T08:42:49.508Z,74.41
2023-01-08T08:45:16.019Z,74.21
2023-01-08T08:47:42.451Z,74.01
2023-01-08T08:50:09.655Z,73.61
2023-01-08T08:52:37.493Z,73.61
2023-01-08T08:55:04.317Z,72.85
2023-01-08T08:57:30.722Z,73.00
2023-01-08T08:59:58.199Z,73.96
2023-01-08T09:02:26.007Z,74.14
2023-01-08T09:04:52.628Z,72.91
2023-01-08T09:07:19.021Z,72.87
2023-01-08T09:09:45.437Z,72.51
2023-01-08T09:12:11.815Z,72.66
2023-01-08T09:14:38.275Z,72.03
2023-01-08T09:17:04.672Z,72.23
2023-01-08T09:19:31.195Z,72.74
2023-01-08T09:21:57.672Z,72.07
2023-01-08T09:24:24.144Z,72.75
2023-01-08T09:26:53.364Z,71.01
2023-01-08T09:29:19.951Z,71.71
2023-01-08T09:31:46.820Z,72.08
2023-01-08T09:34:13.205Z,72.38
2023-01-08T09:36:39.759Z,71.74
2023-01-08T09:39:06.324Z,71.46
2023-01-08T09:41:35.822Z,70.92
2023-01-08T09:44:05.932Z,70.02
2023-01-08T09:46:32.946Z,71.59
2023-01-08T09:49:04.484Z,69.94
2023-01-08T09:51:36.090Z,70.77
2023-01-08T09:54:03.151Z,70.31
2023-01-08T09:56:30.204Z,69.42
2023-01-08T09:58:59.891Z,69.99
2023-01-08T10:01:29.925Z,70.88
2023-01-08T10:03:59.509Z,69.89
2023-01-08T10:06:26.122Z,70.30
2023-01-08T10:08:52.796Z,69.76
2023-01-08T10:11:20.697Z,68.89
2023-01-08T10:13:52.673Z,68.43
2023-01-08T10:16:33.264Z,68.77
2023-01-08T10:19:00.359Z,69.36
2023-01-08T10:21:31.192Z,68.08
2023-01-08T10:23:57.663Z,68.09
2023-01-08T10:26:32.782Z,67.07
2023-01-08T10:29:25.553Z,68.99
2023-01-08T10:31:55.501Z,70.53
2023-01-08T10:34:50.698Z,68.73
2023-01-08T10:37:36.389Z,69.70
2023-01-08T10:40:29.503Z,69.66
2023-01-08T10:42:58.484Z,67.69
2023-01-08T10:45:27.906Z,69.13
2023-01-08T10:47:59.070Z,67.64
2023-01-08T10:50:29.094Z,66.42
2023-01-08T10:52:59.070Z,65.78
2023-01-08T10:55:35.976Z,65.68
2023-01-08T10:58:13.287Z,65.21
2023-01-08T11:00:40.003Z,63.85
2023-01-08T11:03:30.825Z,64.65
2023-01-08T11:05:59.912Z,64.21
2023-01-08T11:08:26.519Z,63.02
2023-01-08T11:10:58.416Z,62.83
2023-01-08T11:13:25.991Z,62.92
2023-01-08T11:16:37.739Z,62.58
2023-01-08T11:19:05.400Z,63.36
2023-01-08T11:21:33.472Z,64.59
2023-01-08T11:24:19.910Z,62.78
2023-01-08T11:26:54.585Z,63.03
2023-01-08T11:29:34.272Z,61.74
2023-01-08T11:32:24.748Z,62.50
2023-01-08T11:35:14.858Z,61.50
2023-01-08T11:37:50.999Z,60.54
2023-01-08T11:40:37.793Z,60.43
2023-01-08T11:43:41.244Z,59.84
2023-01-08T11:46:29.351Z,61.12
2023-01-08T11:49:09.496Z,62.93
2023-01-08T11:52:04.168Z,61.58
2023-01-08T11:55:08.087Z,60.61
2023-01-08T11:58:27.045Z,60.78
2023-01-08T12:01:08.729Z,59.21
2023-01-08T12:03:52.020Z,58.15
2023-01-08T12:06:47.441Z,57.84
2023-01-08T12:09:30.516Z,57.90
2023-01-08T12:12:12.610Z,57.53
2023-01-08T12:15:00.638Z,58.34
2023-01-08T12:17:48.481Z,56.76
2023-01-08T12:20:20.069Z,56.56
2023-01-08T12:23:06.745Z,58.10
2023-01-08T12:25:42.582Z,57.30
2023-01-08T12:28:32.996Z,61.70
2023-01-08T12:31:22.487Z,60.81
2023-01-08T12:33:56.844Z,59.72
2023-01-08T12:36:36.362Z,60.08
2023-01-08T12:39:14.952Z,60.58
2023-01-08T12:41:45.314Z,59.79
2023-01-08T12:44:12.501Z,58.45
2023-01-08T12:46:43.594Z,58.55
2023-01-08T12:49:14.685Z,59.30
2023-01-08T12:52:04.377Z,58.52
2023-01-08T12:54:50.032Z,57.52
2023-01-08T12:57:31.707Z,56.81
2023-01-08T13:00:04.575Z,56.51
2023-01-08T13:02:57.441Z,56.99
2023-01-08T13:05:23.883Z,58.30
2023-01-08T13:07:57.210Z,58.84
2023-01-08T13:10:23.720Z,58.57
2023-01-08T13:12:52.161Z,58.13
2023-01-08T13:15:22.261Z,57.57
2023-01-08T13:17:50.123Z,56.93
2023-01-08T13:20:24.371Z,57.27
2023-01-08T13:22:55.790Z,57.66
2023-01-08T13:25:22.197Z,57.38
2023-01-08T13:27:48.641Z,57.27
2023-01-08T13:30:43.422Z,57.94
2023-01-08T13:33:37.056Z,57.98
2023-01-08T13:36:12.953Z,58.14
2023-01-08T13:38:40.708Z,58.85
2023-01-08T13:41:25.198Z,58.21
2023-01-08T13:44:22.337Z,57.90
2023-01-08T13:46:55.861Z,56.51
2023-01-08T13:49:44.488Z,54.28
2023-01-08T13:52:31.609Z,54.23
2023-01-08T13:54:59.984Z,53.77
2023-01-08T13:57:31.759Z,53.66
2023-01-08T13:59:59.835Z,53.29
2023-01-08T14:02:32.493Z,53.69
2023-01-08T14:05:18.677Z,55.08
2023-01-08T14:07:45.117Z,54.63
2023-01-08T14:10:13.628Z,54.57
2023-01-08T14:12:40.546Z,55.98
2023-01-08T14:15:21.683Z,55.37
2023-01-08T14:17:48.809Z,55.11
2023-01-08T14:20:23.227Z,54.94
2023-01-08T14:22:49.709Z,53.56
2023-01-08T14:25:20.006Z,54.26
2023-01-08T14:27:59.243Z,54.30
2023-01-08T14:30:26.418Z,55.18
2023-01-08T14:32:55.136Z,55.56
2023-01-08T14:35:29.088Z,55.18
2023-01-08T14:37:56.034Z,55.47
2023-01-08T14:40:43.524Z,55.81
2023-01-08T14:43:12.639Z,56.60
2023-01-08T14:45:44.867Z,56.39
2023-01-08T14:48:17.327Z,56.66
2023-01-08T14:50:54.383Z,56.85
2023-01-08T14:53:36.607Z,57.74
2023-01-08T14:56:05.795Z,57.77
2023-01-08T14:58:38.841Z,58.29
2023-01-08T15:01:19.529Z,58.34
2023-01-08T15:03:48.879Z,59.30
2023-01-08T15:06:27.703Z,58.45
2023-01-08T15:08:54.918Z,59.03
2023-01-08T15:11:49.778Z,58.85
2023-01-08T15:14:22.905Z,58.96
2023-01-08T15:16:49.488Z,58.98
2023-01-08T15:19:19.279Z,59.08
2023-01-08T15:21:50.400Z,59.34
2023-01-08T15:24:35.229Z,60.41
2023-01-08T15:27:12.219Z,60.28
2023-01-08T15:29:46.187Z,59.80
2023-01-08T15:32:15.532Z,60.05
2023-01-08T15:34:43.849Z,60.41
2023-01-08T15:37:10.652Z,59.61
2023-01-08T15:39:37.114Z,59.60
2023-01-08T15:42:36.015Z,59.28
2023-01-08T15:45:03.723Z,59.12
2023-01-08T15:47:30.177Z,60.42
2023-01-08T15:49:56.658Z,60.24
2023-01-08T15:52:29.577Z,61.14
2023-01-08T15:55:00.705Z,60.71
2023-01-08T15:57:30.332Z,61.33
2023-01-08T15:59:57.010Z,61.13
2023-01-08T16:02:24.069Z,60.10
2023-01-08T16:04:56.854Z,58.97
2023-01-08T16:07:23.553Z,58.82
2023-01-08T16:09:50.130Z,59.22
2023-01-08T16:12:16.525Z,59.18
2023-01-08T16:14:42.867Z,59.46
2023-01-08T16:17:10.031Z,58.75
2023-01-08T16:19:36.387Z,58.88
2023-01-08T16:22:02.815Z,58.89
2023-01-08T16:24:29.261Z,59.15
2023-01-08T16:26:55.707Z,59.21
2023-01-08T16:29:22.166Z,59.62
2023-01-08T16:31:48.896Z,61.28
2023-01-08T16:34:15.851Z,60.46
2023-01-08T16:36:42.258Z,61.01
2023-01-08T16:39:08.719Z,61.95
2023-01-08T16:41:36.608Z,63.35
2023-01-08T16:44:03.200Z,63.39
2023-01-08T16:46:29.932Z,63.43
2023-01-08T16:48:56.446Z,62.72
2023-01-08T16:51:25.169Z,63.20
2023-01-08T16:53:51.636Z,64.48
2023-01-08T16:56:18.044Z,64.47
2023-01-08T16:58:44.388Z,64.61
2023-01-08T17:01:12.281Z,65.72
2023-01-08T17:03:39.080Z,65.86
2023-01-08T17:06:10.576Z,65.72
2023-01-08T17:08:41.261Z,65.39
2023-01-08T17:11:08.809Z,66.08
2023-01-08T17:13:35.316Z,65.99
2023-01-08T17:16:06.525Z,66.62
2023-01-08T17:18:33.132Z,65.90
2023-01-08T17:20:59.802Z,65.49
2023-01-08T17:23:29.472Z,64.46
2023-01-08T17:25:57.804Z,63.22
2023-01-08T17:28:25.278Z,63.43
2023-01-08T17:30:52.596Z,62.15
2023-01-08T17:33:19.070Z,63.33
2023-01-08T17:35:45.462Z,63.17
2023-01-08T17:38:12.036Z,64.01
2023-01-08T17:40:38.489Z,62.81
2023-01-08T17:43:04.920Z,63.58
2023-01-08T17:45:31.358Z,63.08
2023-01-08T17:47:57.735Z,62.47
2023-01-08T17:50:24.179Z,62.31
2023-01-08T17:52:50.555Z,63.89
2023-01-08T17:55:17.007Z,63.54
2023-01-08T17:57:43.393Z,63.96
2023-01-08T18:00:10.824Z,64.83
2023-01-08T18:02:37.416Z,65.89
2023-01-08T18:05:04.012Z,65.29
2023-01-08T18:07:33.500Z,65.64
2023-01-08T18:10:00.048Z,66.12
2023-01-08T18:12:26.500Z,65.55
2023-01-08T18:14:53.082Z,65.75
2023-01-08T18:17:19.539Z,65.19
2023-01-08T18:19:45.958Z,66.34
2023-01-08T18:22:12.355Z,66.79
2023-01-08T18:24:38.751Z,66.13
2023-01-08T18:27:05.145Z,67.91
2023-01-08T18:29:31.585Z,66.59
2023-01-08T18:31:58.166Z,66.21
2023-01-08T18:34:24.872Z,64.50
2023-01-08T18:36:51.308Z,63.71
2023-01-08T18:39:17.765Z,63.43
2023-01-08T18:42:02.949Z,63.33
2023-01-08T18:44:29.361Z,62.82
2023-01-08T18:46:55.766Z,62.71
2023-01-08T18:49:23.623Z,62.55
2023-01-08T18:51:50.306Z,62.00
2023-01-08T18:54:16.742Z,62.57
2023-01-08T18:56:43.135Z,61.81
2023-01-08T18:59:10.544Z,61.11
2023-01-08T19:01:37.128Z,61.22
2023-01-08T19:04:03.944Z,61.41
2023-01-08T19:06:30.746Z,61.56
2023-01-08T19:08:58.583Z,61.75
2023-01-08T19:11:25.656Z,61.69
2023-01-08T19:14:01.219Z,62.02
2023-01-08T19:16:27.971Z,62.14
2023-01-08T19:18:54.387Z,62.84
2023-01-08T19:21:20.915Z,63.72
2023-01-08T19:23:47.608Z,63.95
2023-01-08T19:26:14.913Z,64.93
2023-01-08T19:28:42.280Z,65.15
2023-01-08T19:31:12.050Z,65.56
2023-01-08T19:33:38.538Z,65.42
2023-01-08T19:36:10.986Z,66.23
2023-01-08T19:38:37.449Z,66.68
2023-01-08T19:41:03.917Z,67.54
2023-01-08T19:43:42.884Z,67.60
2023-01-08T19:46:11.960Z,68.42
2023-01-08T19:48:40.213Z,68.74
2023-01-08T19:51:08.844Z,69.52
2023-01-08T19:53:35.256Z,69.28
2023-01-08T19:56:10.735Z,70.17
2023-01-08T19:58:37.755Z,70.47
2023-01-08T20:01:14.699Z,70.93
2023-01-08T20:03:42.061Z,71.36
2023-01-08T20:06:17.251Z,71.53
2023-01-08T20:08:46.138Z,72.01
2023-01-08T20:11:15.092Z,72.34
2023-01-08T20:13:42.154Z,74.14
2023-01-08T20:16:12.981Z,73.15
2023-01-08T20:18:39.862Z,74.08
2023-01-08T20:21:09.449Z,73.31
2023-01-08T20:23:36.660Z,72.54
2023-01-08T20:26:10.763Z,72.61
2023-01-08T20:28:38.969Z,73.45
2023-01-08T20:31:14.012Z,72.24
2023-01-08T20:33:42.251Z,72.64
2023-01-08T20:36:15.037Z,72.68
2023-01-08T20:38:42.405Z,72.35
2023-01-08T20:41:09.853Z,72.14
2023-01-08T20:43:38.069Z,71.69
2023-01-08T20:46:05.548Z,72.42
2023-01-08T20:48:36.962Z,72.30
2023-01-08T20:51:12.575Z,71.76
2023-01-08T20:53:39.947Z,71.64
2023-01-08T20:56:12.478Z,71.17
2023-01-08T20:58:41.931Z,71.85
2023-01-08T21:01:17.435Z,71.87
2023-01-08T21:03:45.364Z,72.23
2023-01-08T21:06:17.582Z,71.80
2023-01-08T21:08:45.818Z,72.04
2023-01-08T21:11:13.989Z,72.39
2023-01-08T21:13:41.256Z,72.52
2023-01-08T21:16:11.577Z,72.73
2023-01-08T21:18:40.516Z,72.73
2023-01-08T21:21:07.329Z,72.85
2023-01-08T21:23:33.936Z,72.55
2023-01-08T21:26:03.735Z,72.55
2023-01-08T21:28:30.136Z,72.75
2023-01-08T21:31:04.899Z,73.33
2023-01-08T21:33:31.308Z,73.65
2023-01-08T21:35:57.764Z,73.83
2023-01-08T21:38:24.346Z,74.86
2023-01-08T21:40:59.570Z,74.89
2023-01-08T21:43:44.713Z,75.11
2023-01-08T21:46:11.328Z,74.51
2023-01-08T21:48:37.968Z,74.35
2023-01-08T21:51:04.749Z,74.19
2023-01-08T21:53:31.231Z,73.71
2023-01-08T21:56:02.137Z,73.19
2023-01-08T21:58:30.224Z,72.88
2023-01-08T22:00:56.980Z,72.88
2023-01-08T22:03:24.352Z,72.92
2023-01-08T22:06:02.265Z,72.73
2023-01-08T22:08:31.007Z,73.26
2023-01-08T22:11:01.352Z,73.99
2023-01-08T22:13:27.913Z,73.98
2023-01-08T22:16:02.655Z,73.40
2023-01-08T22:18:29.360Z,73.50
2023-01-08T22:21:00.305Z,73.44
2023-01-08T22:23:26.693Z,73.41
2023-01-08T22:25:53.046Z,73.66
2023-01-08T22:28:19.505Z,73.21
2023-01-08T22:30:45.908Z,73.40
2023-01-08T22:33:12.355Z,74.00
2023-01-08T22:35:38.810Z,73.85
2023-01-08T22:38:05.324Z,73.47
2023-01-08T22:40:31.793Z,73.98
2023-01-08T22:42:58.154Z,73.86
2023-01-08T22:45:24.593Z,73.52
2023-01-08T22:47:50.978Z,74.03
2023-01-08T22:50:17.533Z,73.80
2023-01-08T22:52:43.920Z,73.89
2023-01-08T22:55:10.574Z,74.07
2023-01-08T22:57:36.985Z,73.86
2023-01-08T23:00:07.098Z,74.13
2023-01-08T23:02:33.635Z,73.79
2023-01-08T23:05:00.102Z,73.24
2023-01-08T23:07:26.577Z,73.55
2023-01-08T23:09:53.076Z,73.25
2023-01-08T23:12:19.495Z,72.98
2023-01-08T23:14:45.897Z,72.88
2023-01-08T23:17:12.426Z,72.76
2023-01-08T23:19:38.807Z,72.60
2023-01-08T23:22:05.575Z,72.39
2023-01-08T23:24:32.398Z,72.92
2023-01-08T23:26:58.866Z,72.70
2023-01-08T23:29:29.483Z,72.82
2023-01-08T23:32:00.344Z,72.57
2023-01-08T23:34:26.836Z,72.50
2023-01-08T23:36:54.103Z,72.56
2023-01-08T23:39:21.283Z,73.08
2023-01-08T23:41:47.688Z,72.33
2023-01-08T23:44:15.877Z,72.78
2023-01-08T23:46:42.282Z,73.05
2023-01-08T23:49:10.042Z,72.34
2023-01-08T23:51:37.424Z,73.06
2023-01-08T23:54:03.849Z,72.88
2023-01-08T23:56:30.277Z,74.00
2023-01-08T23:58:57.650Z,73.71
